Time;durP1;ratioP1;P1;durP2;ratioP2;P2;SDS_P1;SDS_P2;PMS_P1;PMS_P2;Temp;Humidity;BMP_temperature;BMP_pressure;BME280_temperature;BME280_humidity;BME280_pressure;Samples;Min_cycle;Max_cycle;Signal;HPM_P1;HPM_P2
2023/01/20 00:01:08;;;;;;;3.83;3.63;;;0.50;99.90;;;;;;5042880;28;20223;-73
2023/01/20 00:03:37;;;;;;;3.10;3.00;;;0.50;99.90;;;;;;5043847;28;20203;-73
2023/01/20 00:06:05;;;;;;;3.47;3.33;;;0.50;99.90;;;;;;5045586;28;20284;-74
2023/01/20 00:08:32;;;;;;;3.67;3.47;;;0.50;99.90;;;;;;5047564;28;20203;-74
2023/01/20 00:10:59;;;;;;;3.80;3.60;;;0.50;99.90;;;;;;5043362;28;20227;-74
2023/01/20 00:13:26;;;;;;;3.70;3.50;;;0.50;99.90;;;;;;5046196;28;20214;-74
2023/01/20 00:15:53;;;;;;;3.33;3.13;;;0.50;99.90;;;;;;5042461;28;20638;-74
2023/01/20 00:18:21;;;;;;;3.38;3.17;;;0.50;99.90;;;;;;5045488;28;20195;-74
2023/01/20 00:20:49;;;;;;;3.88;3.60;;;0.50;99.90;;;;;;5024227;28;20284;-74
2023/01/20 00:23:17;;;;;;;3.13;3.03;;;0.50;99.90;;;;;;5041717;28;20248;-74
2023/01/20 00:25:44;;;;;;;3.97;3.78;;;0.60;99.90;;;;;;5045706;28;20215;-74
2023/01/20 00:28:11;;;;;;;3.55;3.35;;;0.60;99.90;;;;;;5046403;28;20199;-72
2023/01/20 00:30:38;;;;;;;3.75;3.47;;;0.50;99.90;;;;;;5045489;28;20222;-74
2023/01/20 00:33:05;;;;;;;3.70;3.50;;;0.50;99.90;;;;;;5045574;28;20603;-74
2023/01/20 00:35:33;;;;;;;3.97;3.78;;;0.50;99.90;;;;;;5030782;28;20219;-75
2023/01/20 00:38:01;;;;;;;3.78;3.58;;;0.50;99.90;;;;;;5042783;28;20223;-74
2023/01/20 00:40:28;;;;;;;3.40;3.28;;;0.50;99.90;;;;;;5046149;28;20219;-74
2023/01/20 00:42:55;;;;;;;3.38;3.25;;;0.50;99.90;;;;;;5044282;28;20679;-74
2023/01/20 00:45:22;;;;;;;3.78;3.58;;;0.50;99.90;;;;;;5046172;28;20218;-74
2023/01/20 00:47:50;;;;;;;3.53;3.33;;;0.50;99.90;;;;;;5041712;28;20222;-74
2023/01/20 00:50:17;;;;;;;3.70;3.50;;;0.40;99.90;;;;;;5040957;28;20218;-76
2023/01/20 00:52:44;;;;;;;3.00;2.90;;;0.40;99.90;;;;;;5025398;28;20264;-75
2023/01/20 00:55:13;;;;;;;3.40;3.20;;;0.40;99.90;;;;;;5044638;28;20226;-74
2023/01/20 00:57:40;;;;;;;3.22;3.03;;;0.40;99.90;;;;;;5046905;28;20225;-74
2023/01/20 01:00:08;;;;;;;3.80;3.60;;;0.40;99.90;;;;;;5040957;28;20214;-74
2023/01/20 01:02:38;;;;;;;3.55;3.35;;;0.40;99.90;;;;;;5022763;28;20199;-75
2023/01/20 01:05:06;;;;;;;3.75;3.55;;;0.40;99.90;;;;;;5039013;28;20313;-74
2023/01/20 01:07:33;;;;;;;3.83;3.63;;;0.40;99.90;;;;;;5044164;28;20221;-75
2023/01/20 01:10:01;;;;;;;4.00;3.80;;;0.40;99.90;;;;;;5020285;28;20223;-75
2023/01/20 01:12:29;;;;;;;3.35;3.25;;;0.40;99.90;;;;;;5037540;28;20256;-74
2023/01/20 01:14:56;;;;;;;3.65;3.45;;;0.30;99.90;;;;;;5047078;28;20220;-74
2023/01/20 01:17:23;;;;;;;3.42;3.22;;;0.30;99.90;;;;;;5046418;28;20273;-74
2023/01/20 01:19:52;;;;;;;3.85;3.65;;;0.30;99.90;;;;;;5043578;28;20255;-74
2023/01/20 01:22:20;;;;;;;3.60;3.40;;;0.20;99.90;;;;;;5044625;28;20314;-74
2023/01/20 01:24:47;;;;;;;3.65;3.45;;;0.30;99.90;;;;;;5040849;28;20772;-74
2023/01/20 01:27:15;;;;;;;3.80;3.60;;;0.30;99.90;;;;;;5044184;28;20222;-74
2023/01/20 01:29:43;;;;;;;3.88;3.58;;;0.30;99.90;;;;;;5026889;28;20230;-75
2023/01/20 01:32:11;;;;;;;3.63;3.42;;;0.40;99.90;;;;;;5041279;28;20633;-74
2023/01/20 01:34:38;;;;;;;3.67;3.47;;;0.40;99.90;;;;;;5046530;28;20225;-74
2023/01/20 01:37:06;;;;;;;3.90;3.70;;;0.40;99.90;;;;;;5023025;28;20223;-74
2023/01/20 01:39:33;;;;;;;3.65;3.45;;;0.40;99.90;;;;;;5041658;28;20218;-74
2023/01/20 01:42:00;;;;;;;3.42;3.22;;;0.40;99.90;;;;;;5041574;28;20248;-74
2023/01/20 01:44:27;;;;;;;3.85;3.65;;;0.40;99.90;;;;;;5025633;28;20206;-74
2023/01/20 01:46:56;;;;;;;3.45;3.25;;;0.40;99.90;;;;;;5040400;28;20224;-74
2023/01/20 01:49:29;;;;;;;4.20;3.90;;;0.40;99.90;;;;;;5045202;28;20207;-73
2023/01/20 01:52:01;;;;;;;3.15;2.95;;;0.30;99.90;;;;;;5042337;28;20203;-74
2023/01/20 01:54:33;;;;;;;3.67;3.50;;;0.30;99.90;;;;;;5045452;28;20199;-74
2023/01/20 01:57:01;;;;;;;3.55;3.35;;;0.30;99.90;;;;;;5029842;28;20207;-74
2023/01/20 01:59:28;;;;;;;4.40;4.10;;;0.30;99.90;;;;;;5045394;28;20211;-74
2023/01/20 02:01:57;;;;;;;3.70;3.50;;;0.20;99.90;;;;;;5049209;28;20198;-74
2023/01/20 02:04:26;;;;;;;3.63;3.42;;;0.20;99.90;;;;;;5047690;28;20211;-75
2023/01/20 02:06:56;;;;;;;3.40;3.30;;;0.20;99.90;;;;;;5045261;28;20226;-74
2023/01/20 02:09:25;;;;;;;3.60;3.40;;;0.20;99.90;;;;;;5047950;28;20203;-75
2023/01/20 02:11:54;;;;;;;3.47;3.38;;;0.10;99.90;;;;;;5047934;28;20202;-74
2023/01/20 02:14:25;;;;;;;3.67;3.47;;;0.10;99.90;;;;;;5045756;28;20229;-74
2023/01/20 02:17:03;;;;;;;3.33;3.13;;;0.10;99.90;;;;;;5029499;28;20261;-74
2023/01/20 02:20:14;;;;;;;3.40;3.25;;;0.20;99.90;;;;;;5045144;28;20199;-74
2023/01/20 02:22:49;;;;;;;3.35;3.20;;;0.20;99.90;;;;;;5044885;28;20214;-73
2023/01/20 02:25:46;;;;;;;3.30;3.20;;;0.20;99.90;;;;;;5044664;28;20226;-73
2023/01/20 02:28:50;;;;;;;3.00;2.90;;;0.20;99.90;;;;;;5045910;28;20606;-74
2023/01/20 02:31:52;;;;;;;3.83;3.63;;;0.10;99.90;;;;;;5042411;28;20770;-75
2023/01/20 02:34:29;;;;;;;4.25;4.05;;;0.10;99.90;;;;;;5043591;28;20751;-74
2023/01/20 02:37:00;;;;;;;3.97;3.78;;;0.00;99.90;;;;;;5030603;28;20745;-75
2023/01/20 02:39:35;;;;;;;3.70;3.50;;;0.00;99.90;;;;;;5045707;28;20252;-74
2023/01/20 02:42:09;;;;;;;3.42;3.33;;;0.00;99.90;;;;;;5044172;28;20203;-74
2023/01/20 02:44:44;;;;;;;4.07;3.88;;;0.00;99.90;;;;;;5047120;28;20276;-74
2023/01/20 02:47:15;;;;;;;3.70;3.50;;;0.00;99.90;;;;;;5028728;28;20230;-74
2023/01/20 02:49:53;;;;;;;3.70;3.50;;;0.00;99.90;;;;;;5046939;28;20234;-74
2023/01/20 02:52:24;;;;;;;3.65;3.45;;;0.00;99.90;;;;;;5045579;28;20706;-73
2023/01/20 02:54:56;;;;;;;3.60;3.40;;;-0.10;99.90;;;;;;5049351;28;20324;-74
2023/01/20 02:57:28;;;;;;;3.67;3.50;;;-0.10;99.90;;;;;;5049586;28;20269;-73
2023/01/20 03:00:08;;;;;;;3.65;3.45;;;-0.20;99.90;;;;;;5043326;28;20650;-74
2023/01/20 03:02:39;;;;;;;3.30;3.20;;;-0.20;99.90;;;;;;5046599;28;20211;-74
2023/01/20 03:05:10;;;;;;;3.65;3.45;;;-0.20;99.90;;;;;;5031060;28;20230;-73
2023/01/20 03:07:40;;;;;;;3.80;3.65;;;-0.20;99.90;;;;;;5045515;28;20238;-73
2023/01/20 03:10:15;;;;;;;3.83;3.63;;;-0.20;99.90;;;;;;5041627;28;20222;-73
2023/01/20 03:12:48;;;;;;;3.42;3.20;;;-0.30;99.90;;;;;;5047277;28;20191;-74
2023/01/20 03:15:16;;;;;;;3.50;3.30;;;-0.30;99.90;;;;;;5047342;28;20219;-74
2023/01/20 03:17:44;;;;;;;3.50;3.30;;;-0.30;99.90;;;;;;5044618;28;20227;-73
2023/01/20 03:20:14;;;;;;;3.20;3.10;;;-0.30;99.90;;;;;;5044535;28;20222;-73
2023/01/20 03:22:41;;;;;;;3.53;3.42;;;-0.30;99.90;;;;;;5047683;28;20195;-72
2023/01/20 03:25:11;;;;;;;3.47;3.38;;;-0.30;99.90;;;;;;5043085;28;20219;-73
2023/01/20 03:27:38;;;;;;;3.47;3.30;;;-0.20;99.90;;;;;;5047448;28;20715;-74
2023/01/20 03:30:11;;;;;;;3.92;3.63;;;-0.30;99.90;;;;;;5044020;28;20716;-74
2023/01/20 03:32:39;;;;;;;3.30;3.10;;;-0.30;99.90;;;;;;5028611;28;20191;-75
2023/01/20 03:35:07;;;;;;;4.00;3.70;;;-0.30;99.90;;;;;;5024240;28;20211;-74
2023/01/20 03:37:36;;;;;;;3.75;3.55;;;-0.40;99.90;;;;;;5046037;28;20223;-74
2023/01/20 03:40:03;;;;;;;3.83;3.67;;;-0.40;99.90;;;;;;5046635;28;20215;-74
2023/01/20 03:42:35;;;;;;;4.20;4.00;;;-0.50;99.90;;;;;;5042570;28;20269;-74
2023/01/20 03:45:09;;;;;;;3.90;3.70;;;-0.50;99.90;;;;;;5042903;28;20229;-74
2023/01/20 03:47:50;;;;;;;3.40;3.20;;;-0.50;99.90;;;;;;5046592;28;20624;-74
2023/01/20 03:50:29;;;;;;;3.40;3.22;;;-0.50;99.90;;;;;;5046764;28;20222;-74
2023/01/20 03:53:04;;;;;;;3.92;3.72;;;-0.50;99.90;;;;;;5042314;28;20198;-74
2023/01/20 03:55:37;;;;;;;3.85;3.65;;;-0.50;99.90;;;;;;5031342;28;20288;-73
2023/01/20 03:58:08;;;;;;;4.40;4.10;;;-0.60;99.90;;;;;;5042062;28;20226;-74
2023/01/20 04:00:39;;;;;;;3.97;3.78;;;-0.60;99.90;;;;;;5041992;28;20223;-74
2023/01/20 04:03:10;;;;;;;3.95;3.75;;;-0.70;99.90;;;;;;5048042;28;20202;-74
2023/01/20 04:05:40;;;;;;;4.40;4.10;;;-0.60;99.90;;;;;;5042236;28;20734;-73
2023/01/20 04:08:11;;;;;;;3.67;3.47;;;-0.70;99.90;;;;;;5031017;28;20251;-73
2023/01/20 04:10:41;;;;;;;4.25;4.00;;;-0.60;99.90;;;;;;5041249;28;20226;-73
2023/01/20 04:13:09;;;;;;;4.20;4.00;;;-0.60;99.90;;;;;;5026914;28;20262;-74
2023/01/20 04:15:39;;;;;;;4.00;3.80;;;-0.60;99.90;;;;;;5038002;28;20218;-73
2023/01/20 04:18:15;;;;;;;4.10;3.90;;;-0.60;99.90;;;;;;5043742;28;20272;-75
2023/01/20 04:20:43;;;;;;;3.97;3.78;;;-0.60;99.90;;;;;;5044286;28;20307;-74
2023/01/20 04:23:18;;;;;;;2.95;2.75;;;-0.60;99.90;;;;;;5045073;28;20206;-74
2023/01/20 04:25:45;;;;;;;4.20;4.00;;;-0.70;99.90;;;;;;5043903;28;20746;-75
2023/01/20 04:28:13;;;;;;;3.90;3.70;;;-0.70;99.90;;;;;;5045205;28;20305;-74
2023/01/20 04:30:40;;;;;;;4.10;3.85;;;-0.70;99.90;;;;;;5044425;28;20288;-75
2023/01/20 04:33:07;;;;;;;3.63;3.35;;;-0.70;99.90;;;;;;5044969;28;20199;-74
2023/01/20 04:35:34;;;;;;;3.95;3.75;;;-0.80;99.90;;;;;;5043138;28;20223;-74
2023/01/20 04:38:01;;;;;;;3.65;3.45;;;-0.70;99.90;;;;;;5047418;28;20222;-74
2023/01/20 04:40:30;;;;;;;3.60;3.40;;;-0.70;99.90;;;;;;5044035;28;20715;-72
2023/01/20 04:42:57;;;;;;;4.20;4.00;;;-0.70;99.90;;;;;;5045429;28;20201;-74
2023/01/20 04:45:24;;;;;;;3.88;3.67;;;-0.80;99.90;;;;;;5045012;28;20211;-74
2023/01/20 04:47:52;;;;;;;3.70;3.50;;;-0.80;99.90;;;;;;5045929;28;20214;-75
2023/01/20 04:50:19;;;;;;;3.28;3.17;;;-0.90;99.90;;;;;;5025871;28;20869;-74
2023/01/20 04:52:46;;;;;;;3.17;3.00;;;-0.90;99.90;;;;;;5044131;28;20191;-74
2023/01/20 04:55:14;;;;;;;3.78;3.58;;;-0.80;99.90;;;;;;5044841;28;20703;-73
2023/01/20 04:57:42;;;;;;;3.88;3.63;;;-0.80;99.90;;;;;;5043686;28;20293;-73
2023/01/20 05:00:17;;;;;;;3.85;3.65;;;-0.80;99.90;;;;;;5046369;28;20218;-74
2023/01/20 05:02:44;;;;;;;3.63;3.47;;;-0.90;99.90;;;;;;5031347;28;20193;-74
2023/01/20 05:05:11;;;;;;;3.70;3.50;;;-0.90;99.90;;;;;;5045159;28;20222;-73
2023/01/20 05:07:38;;;;;;;3.33;3.22;;;-0.90;99.90;;;;;;5046243;28;20722;-74
2023/01/20 05:10:07;;;;;;;3.97;3.78;;;-0.90;99.90;;;;;;5046400;28;20223;-74
2023/01/20 05:12:35;;;;;;;4.55;3.90;;;-1.00;99.90;;;;;;5042978;28;20199;-73
2023/01/20 05:15:05;;;;;;;4.03;3.72;;;-1.00;99.90;;;;;;5043303;28;20214;-74
2023/01/20 05:17:32;;;;;;;4.20;4.00;;;-1.00;99.90;;;;;;5025957;28;20211;-74
2023/01/20 05:19:59;;;;;;;4.15;3.95;;;-1.00;99.90;;;;;;5047710;28;20747;-72
2023/01/20 05:22:27;;;;;;;4.00;3.70;;;-1.00;99.90;;;;;;5028661;28;20241;-74
2023/01/20 05:24:54;;;;;;;5.68;5.28;;;-1.00;99.90;;;;;;5048041;28;20292;-73
2023/01/20 05:27:21;;;;;;;4.70;4.40;;;-1.00;99.90;;;;;;5055380;28;20218;-74
2023/01/20 05:29:48;;;;;;;4.25;3.95;;;-1.00;99.90;;;;;;5059416;28;20222;-73
2023/01/20 05:32:17;;;;;;;5.20;4.80;;;-1.10;99.90;;;;;;5051198;28;20229;-73
2023/01/20 05:34:44;;;;;;;4.85;4.45;;;-1.10;99.90;;;;;;5051374;28;20218;-74
2023/01/20 05:37:11;;;;;;;4.65;4.35;;;-1.20;99.90;;;;;;5048816;28;20578;-73
2023/01/20 05:39:39;;;;;;;4.30;4.00;;;-1.20;99.90;;;;;;5046037;28;20215;-74
2023/01/20 05:42:06;;;;;;;4.53;4.32;;;-1.20;99.90;;;;;;5046514;28;20200;-74
2023/01/20 05:44:34;;;;;;;4.15;3.95;;;-1.20;99.90;;;;;;5048401;28;20563;-74
2023/01/20 05:47:01;;;;;;;4.15;3.95;;;-1.20;99.90;;;;;;5023761;28;20228;-73
2023/01/20 05:49:30;;;;;;;4.47;4.28;;;-1.20;99.90;;;;;;5051828;28;20275;-73
2023/01/20 05:51:57;;;;;;;4.05;3.85;;;-1.20;99.90;;;;;;5053291;28;20203;-73
2023/01/20 05:54:25;;;;;;;5.05;4.75;;;-1.20;99.90;;;;;;5057829;28;20199;-74
2023/01/20 05:56:52;;;;;;;4.45;4.25;;;-1.30;99.90;;;;;;5044707;28;20247;-74
2023/01/20 05:59:20;;;;;;;4.57;4.38;;;-1.20;99.90;;;;;;5042416;28;20491;-74
2023/01/20 06:01:47;;;;;;;4.38;4.13;;;-1.20;99.90;;;;;;5050895;28;20199;-73
2023/01/20 06:04:14;;;;;;;4.40;4.20;;;-1.10;99.90;;;;;;5046507;28;20842;-74
2023/01/20 06:06:43;;;;;;;4.47;4.20;;;-1.10;99.90;;;;;;5052492;28;20218;-73
2023/01/20 06:09:10;;;;;;;4.10;3.90;;;-1.10;99.90;;;;;;5046904;28;20276;-74
2023/01/20 06:11:37;;;;;;;4.03;3.83;;;-1.00;99.90;;;;;;5046780;28;20268;-73
2023/01/20 06:14:05;;;;;;;4.25;4.05;;;-1.00;99.90;;;;;;5029991;28;20321;-74
2023/01/20 06:16:32;;;;;;;4.07;3.88;;;-1.00;99.90;;;;;;5044370;28;20225;-73
2023/01/20 06:19:00;;;;;;;3.40;3.30;;;-1.00;99.90;;;;;;5047248;28;20671;-74
2023/01/20 06:21:27;;;;;;;4.30;4.10;;;-1.00;99.90;;;;;;5030979;28;20762;-74
2023/01/20 06:23:56;;;;;;;3.92;3.72;;;-1.10;99.90;;;;;;5033116;28;20207;-73
2023/01/20 06:26:23;;;;;;;4.88;4.57;;;-1.20;99.90;;;;;;5044825;28;20234;-74
2023/01/20 06:28:50;;;;;;;4.35;4.15;;;-1.20;99.90;;;;;;5052522;28;20638;-73
2023/01/20 06:31:18;;;;;;;4.35;4.07;;;-1.30;99.90;;;;;;5048705;28;20596;-74
2023/01/20 06:33:45;;;;;;;4.60;4.35;;;-1.30;99.90;;;;;;5045719;28;20218;-74
2023/01/20 06:36:15;;;;;;;4.47;4.18;;;-1.30;99.90;;;;;;5044682;28;20596;-73
2023/01/20 06:38:47;;;;;;;4.30;4.00;;;-1.30;99.90;;;;;;5050099;28;20214;-73
2023/01/20 06:41:16;;;;;;;4.50;4.20;;;-1.30;99.90;;;;;;5045876;28;20580;-73
2023/01/20 06:43:44;;;;;;;4.68;4.43;;;-1.30;99.90;;;;;;5042718;28;20192;-73
2023/01/20 06:46:13;;;;;;;3.83;3.63;;;-1.30;99.90;;;;;;5028718;28;20245;-74
2023/01/20 06:48:40;;;;;;;4.57;4.28;;;-1.30;99.90;;;;;;5048171;28;20627;-73
2023/01/20 06:51:10;;;;;;;4.72;4.43;;;-1.30;99.90;;;;;;5029428;28;20227;-73
2023/01/20 06:53:37;;;;;;;4.28;4.07;;;-1.30;99.90;;;;;;5026758;28;20256;-73
2023/01/20 06:56:05;;;;;;;4.15;3.88;;;-1.30;99.90;;;;;;5047387;28;20234;-73
2023/01/20 06:58:34;;;;;;;5.70;4.30;;;-1.10;99.90;;;;;;5013424;28;20260;-74
2023/01/20 07:01:07;;;;;;;6.35;5.18;;;-1.10;99.90;;;;;;5046820;28;20230;-74
2023/01/20 07:03:35;;;;;;;4.93;4.63;;;-1.00;99.90;;;;;;5022031;28;20257;-73
2023/01/20 07:06:04;;;;;;;3.97;3.70;;;-0.90;99.90;;;;;;5044755;28;20227;-74
2023/01/20 07:08:32;;;;;;;5.00;4.60;;;-0.90;99.90;;;;;;5043932;28;20222;-74
2023/01/20 07:17:45;;;;;;;5.03;4.72;;;-1.20;99.90;;;;;;5038450;28;20360;-72
2023/01/20 07:20:13;;;;;;;4.88;4.55;;;-1.20;99.90;;;;;;5012360;28;20218;-73
2023/01/20 07:22:40;;;;;;;4.78;4.57;;;-1.20;99.90;;;;;;5023889;28;20342;-73
2023/01/20 07:25:08;;;;;;;4.88;4.57;;;-1.20;99.90;;;;;;5024414;28;20704;-73
2023/01/20 07:27:35;;;;;;;4.57;4.38;;;-1.20;99.90;;;;;;5019623;28;21058;-73
2023/01/20 07:30:04;;;;;;;4.72;4.43;;;-1.20;99.90;;;;;;5025664;28;20677;-73
2023/01/20 07:32:31;;;;;;;4.95;4.65;;;-1.20;99.90;;;;;;5024119;28;20212;-72
2023/01/20 07:35:00;;;;;;;5.20;4.90;;;-1.10;99.90;;;;;;5024299;28;20685;-73
2023/01/20 07:37:27;;;;;;;6.30;5.90;;;-1.00;99.90;;;;;;5021308;28;20263;-73
2023/01/20 07:39:54;;;;;;;7.90;7.20;;;-1.00;99.90;;;;;;5024342;28;20332;-73
2023/01/20 07:42:21;;;;;;;8.43;7.63;;;-1.00;99.90;;;;;;5026255;28;20278;-73
2023/01/20 07:44:48;;;;;;;7.03;6.43;;;-0.90;99.90;;;;;;5023066;28;20297;-71
2023/01/20 07:47:15;;;;;;;8.07;7.38;;;-0.90;99.90;;;;;;5020298;28;20298;-71
2023/01/20 07:49:42;;;;;;;7.68;7.07;;;-0.90;99.90;;;;;;5023379;28;20243;-71
2023/01/20 07:52:10;;;;;;;6.93;5.80;;;-0.90;99.90;;;;;;5021523;28;20245;-71
2023/01/20 07:54:38;;;;;;;6.35;5.85;;;-0.80;99.90;;;;;;5017278;28;20285;-72
2023/01/20 07:57:05;;;;;;;7.65;5.75;;;-0.70;99.90;;;;;;5003971;28;20685;-72
2023/01/20 07:59:32;;;;;;;5.85;5.28;;;-0.70;99.90;;;;;;5023592;28;20229;-73
2023/01/20 08:01:59;;;;;;;6.30;5.85;;;-0.70;99.90;;;;;;5021976;28;20756;-71
2023/01/20 08:04:26;;;;;;;5.72;5.32;;;-0.80;99.90;;;;;;5020259;28;20223;-71
2023/01/20 08:06:54;;;;;;;5.38;4.97;;;-0.80;99.90;;;;;;5024245;28;20228;-72
2023/01/20 08:09:22;;;;;;;5.90;4.97;;;-0.80;99.90;;;;;;5009443;28;20222;-72
2023/01/20 08:11:49;;;;;;;5.28;4.93;;;-0.80;99.90;;;;;;5018510;28;20294;-73
2023/01/20 08:14:17;;;;;;;5.28;4.97;;;-0.80;99.90;;;;;;5022896;28;20524;-73
2023/01/20 08:16:44;;;;;;;5.43;5.13;;;-0.80;99.90;;;;;;5006643;28;20305;-72
2023/01/20 08:19:11;;;;;;;5.05;4.75;;;-0.80;99.90;;;;;;5001608;28;20196;-72
2023/01/20 08:21:38;;;;;;;4.93;4.53;;;-0.60;99.90;;;;;;5020018;28;20223;-72
2023/01/20 08:24:05;;;;;;;4.72;4.43;;;0.50;99.90;;;;;;5024297;28;20231;-72
2023/01/20 08:26:34;;;;;;;5.25;4.95;;;1.60;99.90;;;;;;5022227;28;20224;-72
2023/01/20 08:29:03;;;;;;;5.80;5.40;;;2.50;99.90;;;;;;5022398;28;20259;-74
2023/01/20 08:31:30;;;;;;;5.25;4.88;;;3.30;99.90;;;;;;5019536;28;20316;-72
2023/01/20 08:33:58;;;;;;;4.75;4.35;;;3.80;99.90;;;;;;5023701;28;20270;-73
2023/01/20 08:36:28;;;;;;;4.88;4.57;;;4.20;99.90;;;;;;5005379;28;20223;-74
2023/01/20 08:38:56;;;;;;;5.05;4.68;;;4.50;99.90;;;;;;5022269;28;20211;-72
2023/01/20 08:41:26;;;;;;;5.00;4.65;;;4.80;99.90;;;;;;5021495;28;20768;-73
2023/01/20 08:43:55;;;;;;;4.65;4.30;;;5.10;99.90;;;;;;5023990;28;20206;-73
2023/01/20 08:46:22;;;;;;;5.25;4.40;;;5.40;99.90;;;;;;5022657;28;20314;-73
2023/01/20 08:48:50;;;;;;;5.18;4.88;;;5.70;99.90;;;;;;5022534;28;20342;-73
2023/01/20 08:51:19;;;;;;;4.60;4.30;;;5.90;99.90;;;;;;5021109;28;20839;-73
2023/01/20 08:53:46;;;;;;;5.82;4.07;;;6.20;99.90;;;;;;5022385;28;20294;-73
2023/01/20 08:56:13;;;;;;;5.57;4.40;;;6.50;99.90;;;;;;5004510;28;20715;-72
2023/01/20 08:58:41;;;;;;;4.75;4.38;;;6.40;99.90;;;;;;5023062;28;20277;-72
2023/01/20 09:01:11;;;;;;;5.13;4.63;;;6.00;99.90;;;;;;5022968;28;20230;-72
2023/01/20 09:03:38;;;;;;;4.95;4.43;;;6.00;99.90;;;;;;5019336;28;20231;-72
2023/01/20 09:06:06;;;;;;;4.22;3.92;;;6.10;99.90;;;;;;5023012;28;20231;-73
2023/01/20 09:08:34;;;;;;;4.93;4.43;;;6.30;99.90;;;;;;5023080;28;20192;-73
2023/01/20 09:11:06;;;;;;;5.30;4.80;;;6.70;99.90;;;;;;5003364;28;20230;-73
2023/01/20 09:13:34;;;;;;;5.18;4.28;;;6.90;99.90;;;;;;5017894;28;20930;-73
2023/01/20 09:16:02;;;;;;;4.80;4.40;;;7.00;99.90;;;;;;5020711;28;20231;-73
2023/01/20 09:18:31;;;;;;;5.20;4.70;;;6.80;99.90;;;;;;5023291;28;20198;-73
2023/01/20 09:20:59;;;;;;;4.78;4.38;;;6.30;99.90;;;;;;5022577;28;20310;-74
2023/01/20 09:23:26;;;;;;;4.50;4.10;;;6.50;99.90;;;;;;5022266;28;20616;-73
2023/01/20 09:25:54;;;;;;;4.70;4.40;;;6.90;99.90;;;;;;5005591;28;20223;-73
2023/01/20 09:28:21;;;;;;;4.18;3.88;;;7.80;99.90;;;;;;5021837;28;20301;-73
2023/01/20 09:30:47;;;;;;;3.63;3.42;;;9.10;99.90;;;;;;5021430;28;20306;-73
2023/01/20 09:33:15;;;;;;;3.83;3.53;;;10.70;99.90;;;;;;5028384;28;20200;-73
2023/01/20 09:35:44;;;;;;;4.05;3.65;;;12.30;99.90;;;;;;5027129;28;20243;-73
2023/01/20 09:44:00;;;;;;;4.10;3.80;;;12.10;93.60;;;;;;5020877;28;20737;-73
2023/01/20 09:46:40;;;;;;;3.60;3.35;;;11.20;93.40;;;;;;5021878;28;20296;-73
2023/01/20 09:55:04;;;;;;;4.40;4.00;;;6.90;99.50;;;;;;5022126;28;20308;-73
2023/01/20 09:57:37;;;;;;;4.45;4.15;;;6.20;99.90;;;;;;5022583;28;20255;-73
2023/01/20 10:00:09;;;;;;;4.45;4.05;;;5.50;99.90;;;;;;5019606;28;20311;-73
2023/01/20 10:02:37;;;;;;;4.70;4.30;;;4.90;99.90;;;;;;5020334;28;20196;-73
2023/01/20 10:05:12;;;;;;;4.13;3.92;;;4.60;99.90;;;;;;5006791;28;20236;-72
2023/01/20 10:07:50;;;;;;;4.28;3.97;;;4.40;99.90;;;;;;5029058;28;20225;-71
2023/01/20 10:10:22;;;;;;;3.72;3.42;;;4.30;99.90;;;;;;5031788;28;20234;-72
2023/01/20 10:12:54;;;;;;;4.30;4.00;;;4.40;99.90;;;;;;5026338;28;20208;-73
2023/01/20 10:15:25;;;;;;;4.10;3.63;;;4.50;99.90;;;;;;5007019;28;20938;-72
2023/01/20 10:17:57;;;;;;;4.18;3.88;;;4.50;99.90;;;;;;5026849;28;20247;-72
2023/01/20 10:20:33;;;;;;;3.97;3.67;;;4.40;99.90;;;;;;5025029;28;20341;-73
2023/01/20 10:23:08;;;;;;;4.68;4.30;;;4.20;99.90;;;;;;5019056;28;20199;-73
2023/01/20 10:25:41;;;;;;;4.35;4.05;;;4.40;99.90;;;;;;5025590;28;20280;-72
2023/01/20 10:28:12;;;;;;;3.47;3.28;;;5.30;99.90;;;;;;5027609;28;20286;-73
2023/01/20 10:30:39;;;;;;;4.20;3.90;;;6.30;99.90;;;;;;5026479;28;20247;-73
2023/01/20 10:33:11;;;;;;;4.25;3.95;;;7.40;99.90;;;;;;5024923;28;20232;-73
2023/01/20 10:35:41;;;;;;;5.97;4.20;;;7.90;99.90;;;;;;5007615;28;20749;-73
2023/01/20 10:38:20;;;;;;;3.97;3.67;;;8.30;99.60;;;;;;5024241;28;20287;-72
2023/01/20 10:40:54;;;;;;;3.72;3.53;;;7.90;98.60;;;;;;5022043;28;20251;-73
2023/01/20 10:43:21;;;;;;;3.85;3.65;;;8.10;99.90;;;;;;5019744;28;20269;-72
2023/01/20 10:46:06;;;;;;;3.85;3.60;;;8.30;99.90;;;;;;5025432;28;20303;-73
2023/01/20 10:48:57;;;;;;;4.00;3.70;;;8.90;99.90;;;;;;5003573;28;20195;-72
2023/01/20 10:51:35;;;;;;;4.53;4.22;;;9.30;97.50;;;;;;5020064;28;20298;-71
2023/01/20 10:54:15;;;;;;;4.05;3.70;;;9.20;98.50;;;;;;5024257;28;20223;-72
2023/01/20 10:56:52;;;;;;;4.05;3.75;;;9.10;98.80;;;;;;5022592;28;20235;-74
2023/01/20 10:59:30;;;;;;;3.42;3.22;;;9.40;99.90;;;;;;5026098;28;20208;-76
2023/01/20 11:02:02;;;;;;;6.28;5.68;;;9.90;99.90;;;;;;5020893;28;20286;-74
2023/01/20 11:04:30;;;;;;;6.95;3.95;;;9.80;99.30;;;;;;5025107;28;20769;-75
2023/01/20 11:07:02;;;;;;;3.40;3.20;;;9.80;99.30;;;;;;5021779;28;20227;-74
2023/01/20 11:09:35;;;;;;;3.70;3.40;;;10.10;99.90;;;;;;5020626;28;20270;-72
2023/01/20 11:12:06;;;;;;;3.40;3.20;;;10.30;98.20;;;;;;5023200;28;20678;-73
2023/01/20 11:14:34;;;;;;;4.40;3.17;;;10.20;97.70;;;;;;5024778;28;20238;-73
2023/01/20 11:17:05;;;;;;;3.17;2.97;;;9.90;97.40;;;;;;5007578;28;20273;-73
2023/01/20 11:19:46;;;;;;;4.10;3.80;;;10.00;98.30;;;;;;5017989;28;20251;-74
2023/01/20 11:22:19;;;;;;;3.33;3.13;;;10.40;97.40;;;;;;5005519;28;20196;-74
2023/01/20 11:24:48;;;;;;;4.65;3.33;;;10.70;96.80;;;;;;5006078;28;20273;-74
2023/01/20 11:27:18;;;;;;;2.90;2.70;;;11.10;96.90;;;;;;5026599;28;20640;-73
2023/01/20 11:29:49;;;;;;;3.03;2.83;;;11.10;95.70;;;;;;5017005;28;20294;-74
2023/01/20 11:32:34;;;;;;;3.78;3.47;;;10.90;92.90;;;;;;5025709;28;20224;-74
2023/01/20 11:35:03;;;;;;;2.80;2.60;;;10.30;91.50;;;;;;5021230;28;21372;-74
2023/01/20 11:37:37;;;;;;;2.92;2.72;;;10.20;93.50;;;;;;5019001;28;20315;-74
2023/01/20 11:40:21;;;;;;;3.00;2.80;;;10.20;93.50;;;;;;5023404;28;20222;-74
2023/01/20 11:42:50;;;;;;;3.10;2.90;;;10.10;91.90;;;;;;5009985;28;20282;-76
2023/01/20 11:45:31;;;;;;;3.50;3.20;;;10.30;94.00;;;;;;5022401;28;20220;-75
2023/01/20 11:48:20;;;;;;;3.20;3.00;;;10.70;92.90;;;;;;5001996;28;20573;-74
2023/01/20 11:50:49;;;;;;;3.47;3.22;;;11.10;93.00;;;;;;5023281;28;20704;-76
2023/01/20 11:53:24;;;;;;;2.85;2.65;;;11.60;93.00;;;;;;5023264;28;20635;-76
2023/01/20 11:55:56;;;;;;;3.50;3.30;;;11.60;92.40;;;;;;5019349;28;20227;-76
2023/01/20 11:58:25;;;;;;;2.75;2.55;;;11.30;90.70;;;;;;5020955;28;20278;-76
2023/01/20 12:00:59;;;;;;;2.67;2.58;;;11.00;88.10;;;;;;5022749;28;20215;-75
2023/01/20 12:04:13;;;;;;;2.80;2.60;;;10.00;86.10;;;;;;5022566;28;20195;-75
2023/01/20 12:06:52;;;;;;;2.80;2.60;;;9.40;88.00;;;;;;5003157;28;20649;-75
2023/01/20 12:09:23;;;;;;;3.22;2.45;;;9.40;90.90;;;;;;5019773;28;20210;-74
2023/01/20 12:11:57;;;;;;;2.80;2.60;;;9.50;86.40;;;;;;5022774;28;20295;-75
2023/01/20 12:14:29;;;;;;;3.20;3.00;;;9.40;90.20;;;;;;5022674;28;20202;-74
2023/01/20 12:17:07;;;;;;;2.95;2.75;;;9.30;87.10;;;;;;5020947;28;20311;-74
2023/01/20 12:19:41;;;;;;;3.03;2.85;;;8.90;86.30;;;;;;5020575;28;20235;-73
2023/01/20 12:22:15;;;;;;;2.88;2.67;;;8.80;89.50;;;;;;5021319;28;20691;-74
2023/01/20 12:25:08;;;;;;;2.80;2.60;;;8.70;87.40;;;;;;5025202;28;20322;-75
2023/01/20 12:27:42;;;;;;;3.13;2.83;;;8.90;88.70;;;;;;5020446;28;20262;-76
2023/01/20 12:30:25;;;;;;;2.60;2.40;;;8.90;88.70;;;;;;5018695;28;20763;-74
2023/01/20 12:32:52;;;;;;;2.30;2.20;;;8.70;88.50;;;;;;5005816;28;20326;-74
2023/01/20 12:35:23;;;;;;;2.78;2.53;;;8.70;89.60;;;;;;5022432;28;20243;-76
2023/01/20 12:37:55;;;;;;;2.70;2.60;;;8.90;89.80;;;;;;5021385;28;20319;-73
2023/01/20 12:40:36;;;;;;;3.00;2.80;;;8.90;88.30;;;;;;4980958;28;21109;-74
2023/01/20 12:43:38;;;;;;;2.67;2.58;;;8.80;86.60;;;;;;5005199;28;20193;-75
2023/01/20 12:46:37;;;;;;;3.08;2.88;;;8.90;86.30;;;;;;5021571;28;20229;-75
2023/01/20 12:49:33;;;;;;;3.30;3.00;;;8.60;89.40;;;;;;5005569;28;20303;-73
2023/01/20 12:52:15;;;;;;;2.47;2.38;;;8.80;87.90;;;;;;5008542;28;20305;-72
2023/01/20 12:55:05;;;;;;;3.10;2.90;;;8.90;90.30;;;;;;5022987;28;20796;-73
2023/01/20 12:57:49;;;;;;;2.72;2.42;;;9.20;90.00;;;;;;5019837;28;20316;-74
2023/01/20 13:00:35;;;;;;;2.75;2.55;;;9.40;89.70;;;;;;5020873;28;20306;-76
2023/01/20 13:03:30;;;;;;;3.05;2.72;;;9.70;88.80;;;;;;5017017;28;20260;-75
2023/01/20 13:06:23;;;;;;;3.58;3.25;;;9.90;88.90;;;;;;5021297;28;20227;-75
2023/01/20 13:08:57;;;;;;;4.45;3.03;;;9.70;89.40;;;;;;5020470;28;20206;-74
2023/01/20 13:11:38;;;;;;;2.83;2.70;;;9.80;90.20;;;;;;5018857;28;20224;-76
2023/01/20 13:14:12;;;;;;;2.50;2.30;;;9.60;90.20;;;;;;5002820;28;20223;-76
2023/01/20 13:16:48;;;;;;;3.53;2.60;;;9.70;89.60;;;;;;5022105;28;20269;-77
2023/01/20 13:19:19;;;;;;;3.60;2.47;;;9.90;90.40;;;;;;5023630;28;20195;-76
2023/01/20 13:21:50;;;;;;;2.63;2.42;;;9.80;91.80;;;;;;5002557;28;20354;-75
2023/01/20 13:24:27;;;;;;;2.42;2.30;;;9.50;89.20;;;;;;5003963;28;20281;-75
2023/01/20 13:26:56;;;;;;;2.25;2.15;;;8.80;87.10;;;;;;5020391;28;20234;-76
2023/01/20 13:29:44;;;;;;;2.92;2.72;;;8.20;86.90;;;;;;5005759;28;20239;-76
2023/01/20 13:32:34;;;;;;;2.80;2.60;;;7.70;82.90;;;;;;5024247;28;20935;-75